Time;durP1;ratioP1;P1;durP2;ratioP2;P2;SDS_P1;SDS_P2;PMS_P1;PMS_P2;Temp;Humidity;BMP_temperature;BMP_pressure;BME280_temperature;BME280_humidity;BME280_pressure;Samples;Min_cycle;Max_cycle;Signal;HPM_P1;HPM_P2
2023/01/14 00:00:52;;;;;;;26.10;4.07;;;7.00;99.90;;;;;;4954479;28;20428;-73
2023/01/14 00:03:18;;;;;;;24.38;3.40;;;7.40;99.90;;;;;;4951025;28;20066;-73
2023/01/14 00:05:53;;;;;;;27.55;3.80;;;7.00;99.90;;;;;;4945099;28;20043;-73
2023/01/14 00:08:19;;;;;;;24.65;3.70;;;7.50;99.90;;;;;;4955352;28;20407;-73
2023/01/14 00:10:45;;;;;;;25.90;3.20;;;7.00;99.90;;;;;;4955935;28;20065;-73
2023/01/14 00:13:11;;;;;;;25.95;3.97;;;7.00;99.90;;;;;;4953191;28;20047;-72
2023/01/14 00:15:36;;;;;;;20.50;3.13;;;7.40;99.90;;;;;;4954761;28;20042;-72
2023/01/14 00:18:02;;;;;;;28.17;3.55;;;7.10;99.90;;;;;;4952566;28;20050;-72
2023/01/14 00:20:30;;;;;;;24.55;3.13;;;6.90;99.90;;;;;;4957069;28;20672;-72
2023/01/14 00:22:56;;;;;;;17.27;2.70;;;7.00;99.90;;;;;;4960346;28;20051;-72
2023/01/14 00:25:22;;;;;;;31.70;3.33;;;6.90;99.90;;;;;;4957122;28;20031;-73
2023/01/14 00:27:47;;;;;;;21.92;3.00;;;6.90;99.90;;;;;;4957549;28;20514;-72
2023/01/14 00:30:13;;;;;;;15.27;3.28;;;6.90;99.90;;;;;;4955204;28;20089;-72
2023/01/14 00:32:39;;;;;;;19.60;2.92;;;6.90;99.90;;;;;;4975315;28;20043;-72
2023/01/14 00:35:05;;;;;;;19.75;2.80;;;6.90;99.90;;;;;;4950097;28;20051;-73
2023/01/14 00:37:31;;;;;;;16.75;2.95;;;6.80;99.90;;;;;;4958042;28;20061;-73
2023/01/14 00:39:56;;;;;;;14.27;3.15;;;6.90;99.90;;;;;;4956700;28;20039;-73
2023/01/14 00:42:22;;;;;;;22.83;3.13;;;6.80;99.90;;;;;;4955165;28;20051;-73
2023/01/14 00:44:48;;;;;;;20.17;2.90;;;6.80;99.90;;;;;;4954598;28;20078;-73
2023/01/14 00:47:14;;;;;;;18.67;2.72;;;6.90;99.90;;;;;;4956967;28;20784;-72
2023/01/14 00:49:39;;;;;;;23.55;2.83;;;6.90;99.90;;;;;;4956358;28;20045;-73
2023/01/14 00:52:05;;;;;;;22.48;2.72;;;6.90;99.90;;;;;;4953942;28;20149;-73
2023/01/14 00:54:32;;;;;;;22.75;3.40;;;6.90;99.90;;;;;;4941745;28;20042;-72
2023/01/14 00:56:57;;;;;;;21.20;2.95;;;6.90;99.90;;;;;;4957552;28;20602;-72
2023/01/14 00:59:26;;;;;;;19.23;2.90;;;7.00;99.90;;;;;;4957582;28;20046;-72
2023/01/14 01:01:54;;;;;;;19.05;2.78;;;7.00;99.90;;;;;;4956293;28;20066;-73
2023/01/14 01:04:20;;;;;;;21.13;2.72;;;7.00;99.90;;;;;;4955327;28;20497;-73
2023/01/14 01:06:46;;;;;;;16.98;2.70;;;7.00;99.90;;;;;;4955413;28;20058;-72
2023/01/14 01:09:11;;;;;;;25.25;3.83;;;7.40;99.90;;;;;;4939221;28;20042;-73
2023/01/14 01:11:37;;;;;;;21.88;2.78;;;7.00;99.90;;;;;;4957398;28;20049;-72
2023/01/14 01:14:03;;;;;;;17.98;2.40;;;7.00;99.90;;;;;;4956252;28;20074;-73
2023/01/14 01:16:29;;;;;;;18.42;3.03;;;7.00;99.90;;;;;;4959060;28;20066;-72
2023/01/14 01:18:56;;;;;;;17.55;2.75;;;7.30;99.90;;;;;;4935694;28;20699;-72
2023/01/14 01:21:23;;;;;;;18.60;3.20;;;7.10;99.90;;;;;;4960260;28;20074;-72
2023/01/14 01:23:50;;;;;;;20.70;2.72;;;7.10;99.90;;;;;;4965324;28;20042;-72
2023/01/14 01:26:25;;;;;;;32.03;3.72;;;7.20;99.90;;;;;;4963303;28;20139;-72
2023/01/14 01:28:56;;;;;;;24.13;2.50;;;7.00;99.90;;;;;;4961473;28;20086;-72
2023/01/14 01:31:23;;;;;;;21.15;2.95;;;7.00;99.90;;;;;;4961044;28;20050;-72
2023/01/14 01:33:49;;;;;;;22.40;3.17;;;7.00;99.90;;;;;;4942703;28;20512;-73
2023/01/14 01:36:19;;;;;;;23.50;2.63;;;7.00;99.90;;;;;;4958898;28;20081;-72
2023/01/14 01:38:45;;;;;;;19.25;3.13;;;7.00;99.90;;;;;;4974955;28;20512;-73
2023/01/14 01:41:17;;;;;;;18.88;3.42;;;7.00;99.90;;;;;;4958706;28;21005;-73
2023/01/14 01:44:04;;;;;;;20.67;3.00;;;7.00;99.90;;;;;;4957347;28;20055;-73
2023/01/14 01:46:31;;;;;;;31.60;3.10;;;7.00;99.90;;;;;;4974503;28;20047;-73
2023/01/14 01:49:03;;;;;;;20.60;2.90;;;7.00;99.90;;;;;;4958486;28;20047;-74
2023/01/14 01:51:35;;;;;;;18.98;2.55;;;7.00;99.90;;;;;;4957545;28;20455;-74
2023/01/14 01:54:02;;;;;;;18.50;2.85;;;7.00;99.90;;;;;;4955989;28;20624;-74
2023/01/14 01:56:31;;;;;;;18.58;3.65;;;7.00;99.90;;;;;;4955800;28;20051;-72
2023/01/14 01:58:57;;;;;;;26.20;3.17;;;6.90;99.90;;;;;;4955895;28;20113;-73
2023/01/14 02:01:24;;;;;;;22.95;3.00;;;6.90;99.90;;;;;;4953595;28;20058;-72
2023/01/14 02:03:51;;;;;;;29.85;4.03;;;6.90;99.90;;;;;;4956703;28;20632;-73
2023/01/14 02:06:17;;;;;;;26.02;3.47;;;6.90;99.90;;;;;;4960366;28;20043;-73
2023/01/14 02:08:48;;;;;;;19.77;2.72;;;6.90;99.90;;;;;;4946912;28;20042;-73
2023/01/14 02:11:44;;;;;;;22.08;3.47;;;6.90;99.90;;;;;;4937254;28;20262;-73
2023/01/14 02:14:45;;;;;;;19.45;3.00;;;6.80;99.90;;;;;;4953481;28;20496;-73
2023/01/14 02:17:18;;;;;;;35.10;3.70;;;6.80;99.90;;;;;;4888039;28;20051;-73
2023/01/14 02:20:03;;;;;;;24.55;3.05;;;6.80;99.90;;;;;;4942819;28;20050;-72
2023/01/14 02:22:48;;;;;;;32.22;3.47;;;6.80;99.90;;;;;;4946719;28;20829;-73
2023/01/14 02:25:51;;;;;;;27.85;3.38;;;6.80;99.90;;;;;;4944086;28;20055;-73
2023/01/14 02:28:39;;;;;;;22.95;3.70;;;6.80;99.90;;;;;;4958894;28;20038;-73
2023/01/14 02:31:24;;;;;;;26.13;4.15;;;6.80;99.90;;;;;;4956843;28;20049;-73
2023/01/14 02:34:13;;;;;;;25.05;2.85;;;6.80;99.90;;;;;;4957679;28;20500;-73
2023/01/14 02:36:47;;;;;;;25.30;3.05;;;6.70;99.90;;;;;;4957006;28;20122;-73
2023/01/14 02:39:50;;;;;;;23.13;2.67;;;6.70;99.90;;;;;;4943024;28;20129;-73
2023/01/14 02:45:24;;;;;;;24.70;2.80;;;6.70;99.90;;;;;;4958167;28;20050;-73
2023/01/14 02:47:51;;;;;;;20.33;3.28;;;6.70;99.90;;;;;;4959946;28;20117;-73
2023/01/14 02:50:18;;;;;;;24.55;3.00;;;6.60;99.90;;;;;;4959125;28;20097;-73
2023/01/14 02:52:44;;;;;;;21.02;3.03;;;6.60;99.90;;;;;;4940665;28;20125;-73
2023/01/14 02:55:33;;;;;;;19.02;2.40;;;6.60;99.90;;;;;;4957450;28;20042;-73
2023/01/14 02:58:10;;;;;;;18.92;3.33;;;6.60;99.90;;;;;;4957954;28;20041;-73
2023/01/14 03:01:04;;;;;;;23.00;3.60;;;7.00;99.90;;;;;;4950873;28;20054;-73
2023/01/14 03:03:38;;;;;;;25.60;3.15;;;6.50;99.90;;;;;;4939724;29;20086;-73
2023/01/14 03:06:37;;;;;;;16.80;2.75;;;6.50;99.90;;;;;;4908156;29;20074;-73
2023/01/14 03:09:24;;;;;;;29.15;3.45;;;6.50;99.90;;;;;;4929131;29;20791;-73
2023/01/14 03:11:57;;;;;;;19.48;3.58;;;6.50;99.90;;;;;;4928919;29;20043;-73
2023/01/14 03:14:39;;;;;;;28.52;3.33;;;6.50;99.90;;;;;;4910282;29;20126;-73
2023/01/14 03:17:12;;;;;;;23.40;2.90;;;6.50;99.90;;;;;;4916699;29;20043;-72
2023/01/14 03:19:47;;;;;;;26.25;3.45;;;6.50;99.90;;;;;;4939087;29;20094;-73
2023/01/14 03:22:13;;;;;;;21.58;2.80;;;6.50;99.90;;;;;;4922544;29;20043;-72
2023/01/14 03:24:44;;;;;;;16.05;2.20;;;7.00;99.90;;;;;;4935156;29;20055;-74
2023/01/14 03:27:23;;;;;;;21.13;3.05;;;6.40;99.90;;;;;;4932031;29;20501;-73
2023/01/14 03:29:53;;;;;;;21.60;2.60;;;6.40;99.90;;;;;;4911423;29;20051;-73
2023/01/14 03:32:24;;;;;;;15.10;2.75;;;6.40;99.90;;;;;;4927439;29;20059;-73
2023/01/14 03:34:59;;;;;;;17.80;2.55;;;6.40;99.90;;;;;;4911724;29;20178;-73
2023/01/14 03:37:28;;;;;;;29.17;2.90;;;6.40;99.90;;;;;;4936089;29;20048;-73
2023/01/14 03:39:57;;;;;;;27.35;3.20;;;6.30;99.90;;;;;;4905148;29;21502;-74
2023/01/14 03:42:28;;;;;;;22.58;3.22;;;6.30;99.90;;;;;;4921526;29;20043;-73
2023/01/14 03:45:00;;;;;;;;;;;6.30;99.90;;;;;;4923524;29;20046;-73
2023/01/14 03:47:27;;;;;;;;;;;6.30;99.90;;;;;;4928877;29;20376;-73
2023/01/14 03:49:53;;;;;;;22.85;3.65;;;6.30;99.90;;;;;;4920816;29;20055;-73
2023/01/14 03:52:29;;;;;;;23.83;3.38;;;6.20;99.90;;;;;;4910460;29;20133;-73
2023/01/14 03:55:21;;;;;;;16.05;2.70;;;6.20;99.90;;;;;;4912833;29;20518;-73
2023/01/14 03:57:46;;;;;;;19.40;2.75;;;6.20;99.90;;;;;;4927056;29;20066;-73
2023/01/14 04:00:20;;;;;;;28.27;3.60;;;6.10;99.90;;;;;;4928125;28;20055;-73
2023/01/14 04:02:47;;;;;;;19.95;3.10;;;6.20;99.90;;;;;;4918834;29;20043;-73
2023/01/14 04:05:13;;;;;;;22.42;3.17;;;6.10;99.90;;;;;;4926448;29;20414;-73
2023/01/14 04:07:39;;;;;;;25.00;2.95;;;6.10;99.90;;;;;;4918982;29;20134;-73
2023/01/14 04:10:05;;;;;;;24.58;3.35;;;6.30;99.90;;;;;;4928083;29;20057;-73
2023/01/14 04:12:30;;;;;;;19.85;3.35;;;6.00;99.90;;;;;;4926365;29;20039;-72
2023/01/14 04:17:40;;;;;;;21.85;2.80;;;6.10;99.90;;;;;;4940218;28;20059;-72
2023/01/14 04:20:07;;;;;;;22.77;3.17;;;6.00;99.90;;;;;;4933483;29;20473;-73
2023/01/14 04:22:33;;;;;;;36.38;3.88;;;6.00;99.90;;;;;;4928354;29;20511;-74
2023/01/14 04:24:59;;;;;;;25.50;3.80;;;6.00;99.90;;;;;;4922759;29;20047;-74
2023/01/14 04:27:27;;;;;;;18.20;2.75;;;6.00;99.90;;;;;;4920789;29;20039;-74
2023/01/14 04:29:53;;;;;;;19.58;3.15;;;6.00;99.90;;;;;;4925176;29;20066;-74
2023/01/14 04:32:19;;;;;;;22.17;2.92;;;5.90;99.90;;;;;;4908394;29;20810;-73
2023/01/14 04:34:45;;;;;;;22.98;3.22;;;5.90;99.90;;;;;;4938809;29;20047;-73
2023/01/14 04:37:10;;;;;;;21.30;2.88;;;5.90;99.90;;;;;;4930341;29;20051;-73
2023/01/14 04:39:36;;;;;;;21.10;2.53;;;6.00;99.90;;;;;;4905410;29;20050;-73
2023/01/14 04:44:47;;;;;;;21.90;3.10;;;5.90;99.90;;;;;;4935303;29;20043;-73
2023/01/14 04:47:14;;;;;;;24.95;3.50;;;5.90;99.90;;;;;;4926883;29;20058;-74
2023/01/14 04:49:40;;;;;;;23.52;3.17;;;5.80;99.90;;;;;;4921179;29;20166;-73
2023/01/14 04:52:06;;;;;;;29.17;3.42;;;5.90;99.90;;;;;;4924582;29;20075;-72
2023/01/14 04:54:31;;;;;;;27.35;2.90;;;5.80;99.90;;;;;;4940832;29;20073;-73
2023/01/14 04:56:57;;;;;;;20.92;2.70;;;5.80;99.90;;;;;;4905838;29;20571;-72
2023/01/14 04:59:22;;;;;;;25.63;3.65;;;5.80;99.90;;;;;;4913704;29;20047;-73
2023/01/14 05:01:48;;;;;;;23.77;3.17;;;5.70;99.90;;;;;;4938868;28;20050;-74
2023/01/14 05:04:14;;;;;;;22.80;2.88;;;5.70;99.90;;;;;;4941632;28;20054;-72
2023/01/14 05:06:40;;;;;;;19.05;2.88;;;5.70;99.90;;;;;;4911602;29;20413;-74
2023/01/14 05:09:05;;;;;;;20.88;2.75;;;5.70;99.90;;;;;;4937536;29;20154;-72
2023/01/14 05:11:31;;;;;;;20.75;3.22;;;5.70;99.90;;;;;;4927747;29;20051;-73
2023/01/14 05:13:57;;;;;;;24.42;2.63;;;6.40;99.90;;;;;;4939800;29;20066;-75
2023/01/14 05:16:23;;;;;;;19.15;3.13;;;5.70;99.90;;;;;;4928782;29;20441;-73
2023/01/14 05:18:50;;;;;;;26.20;3.35;;;5.70;99.90;;;;;;4909643;29;20050;-72
2023/01/14 05:21:17;;;;;;;25.83;3.92;;;5.70;99.90;;;;;;4926256;29;20047;-73
2023/01/14 05:23:44;;;;;;;21.02;3.63;;;5.70;99.90;;;;;;4910021;29;20057;-73
2023/01/14 05:26:09;;;;;;;24.70;2.88;;;5.70;99.90;;;;;;4925676;29;20047;-73
2023/01/14 05:28:36;;;;;;;21.15;3.30;;;5.70;99.90;;;;;;4927070;29;20038;-73
2023/01/14 05:31:03;;;;;;;22.48;3.30;;;5.80;99.90;;;;;;4910017;29;20043;-72
2023/01/14 05:33:28;;;;;;;20.98;2.95;;;5.60;99.90;;;;;;4924420;29;21650;-73
2023/01/14 05:35:56;;;;;;;20.42;2.80;;;5.70;99.90;;;;;;4943815;28;20035;-74
2023/01/14 05:38:22;;;;;;;27.42;3.00;;;5.70;99.90;;;;;;4910088;29;20558;-74
2023/01/14 05:40:47;;;;;;;21.75;2.70;;;5.70;99.90;;;;;;4910337;29;20429;-74
2023/01/14 05:46:03;;;;;;;24.95;3.28;;;5.70;99.90;;;;;;4939801;29;20055;-73
2023/01/14 05:48:29;;;;;;;28.25;3.90;;;5.70;99.90;;;;;;4911628;29;21541;-73
2023/01/14 05:50:57;;;;;;;22.40;2.92;;;5.70;99.90;;;;;;4927763;29;20071;-74
2023/01/14 05:53:23;;;;;;;23.73;3.90;;;5.60;99.90;;;;;;4939831;29;20094;-73
2023/01/14 05:55:50;;;;;;;22.33;3.80;;;5.70;99.90;;;;;;4926443;29;20051;-73
2023/01/14 05:58:16;;;;;;;28.63;3.22;;;5.70;99.90;;;;;;4924994;29;20047;-74
2023/01/14 06:06:23;;;;;;;20.02;3.03;;;5.70;99.90;;;;;;4957240;28;20058;-72
2023/01/14 06:08:50;;;;;;;27.92;4.35;;;5.70;99.90;;;;;;4954888;28;20266;-73
2023/01/14 06:11:18;;;;;;;24.15;4.22;;;5.70;99.90;;;;;;4959991;28;20179;-75
2023/01/14 06:13:45;;;;;;;21.55;3.60;;;5.70;99.90;;;;;;4958198;28;20054;-73
2023/01/14 06:16:11;;;;;;;28.55;3.30;;;5.70;99.90;;;;;;4957433;28;20046;-73
2023/01/14 06:18:42;;;;;;;23.25;3.67;;;6.10;99.90;;;;;;4937774;28;20043;-73
2023/01/14 06:21:14;;;;;;;25.92;4.43;;;5.70;99.90;;;;;;4980546;28;20038;-74
2023/01/14 06:23:40;;;;;;;29.30;4.15;;;5.70;99.90;;;;;;4955295;28;20468;-74
2023/01/14 06:26:15;;;;;;;26.25;3.95;;;5.70;99.90;;;;;;4954264;28;20055;-72
2023/01/14 06:28:41;;;;;;;27.65;4.25;;;5.80;99.90;;;;;;4963100;28;20054;-73
2023/01/14 06:31:14;;;;;;;38.15;4.97;;;5.70;99.90;;;;;;4952860;28;20752;-73
2023/01/14 06:33:41;;;;;;;27.23;4.35;;;5.70;99.90;;;;;;4955466;28;20042;-73
2023/01/14 06:36:08;;;;;;;21.00;4.22;;;5.60;99.90;;;;;;4962359;28;20082;-73
2023/01/14 06:38:34;;;;;;;24.60;4.72;;;5.70;99.90;;;;;;4947353;28;20038;-74
2023/01/14 06:41:02;;;;;;;32.17;4.25;;;6.30;99.90;;;;;;4962787;28;20039;-74
2023/01/14 06:43:28;;;;;;;27.75;4.75;;;5.60;99.90;;;;;;4939825;28;20671;-74
2023/01/14 06:45:57;;;;;;;24.25;4.72;;;5.70;99.90;;;;;;4956025;28;20087;-73
2023/01/14 06:48:24;;;;;;;24.70;4.43;;;5.60;99.90;;;;;;4957782;28;20094;-74
2023/01/14 06:50:51;;;;;;;26.73;5.43;;;5.60;99.90;;;;;;4962439;28;20374;-74
2023/01/14 06:53:17;;;;;;;34.38;4.93;;;5.60;99.90;;;;;;4960223;28;20794;-73
2023/01/14 06:55:42;;;;;;;31.60;4.72;;;5.30;99.90;;;;;;4958021;28;20078;-72
2023/01/14 06:58:08;;;;;;;26.38;4.28;;;5.60;99.90;;;;;;4958704;28;20051;-73
2023/01/14 07:00:34;;;;;;;33.58;4.93;;;6.10;99.90;;;;;;4951739;28;20102;-74
2023/01/14 07:03:00;;;;;;;33.30;5.70;;;5.60;99.90;;;;;;4943830;28;20043;-74
2023/01/14 07:05:26;;;;;;;24.02;4.97;;;5.60;99.90;;;;;;4957618;28;20062;-74
2023/01/14 07:07:52;;;;;;;40.92;6.95;;;5.60;99.90;;;;;;4936789;28;20038;-73
2023/01/14 07:10:18;;;;;;;34.00;5.85;;;5.60;99.90;;;;;;4954036;28;20074;-73
2023/01/14 07:12:46;;;;;;;28.88;5.80;;;5.60;99.90;;;;;;4955171;28;20046;-73
2023/01/14 07:15:13;;;;;;;28.48;6.07;;;5.60;99.90;;;;;;4960301;28;20041;-73
2023/01/14 07:17:39;;;;;;;31.83;5.78;;;5.70;99.90;;;;;;4951461;28;20054;-73
2023/01/14 07:20:07;;;;;;;36.45;5.90;;;5.60;99.90;;;;;;4945225;28;20125;-73
2023/01/14 07:22:32;;;;;;;32.90;7.25;;;5.70;99.90;;;;;;4960156;28;20051;-74
2023/01/14 07:25:01;;;;;;;35.22;6.40;;;5.70;99.90;;;;;;4947271;28;20053;-74
2023/01/14 07:27:29;;;;;;;34.75;7.03;;;5.70;99.90;;;;;;4960313;28;20479;-72
2023/01/14 07:29:55;;;;;;;28.88;5.68;;;5.70;99.90;;;;;;4953188;28;20039;-74
2023/01/14 07:32:21;;;;;;;32.97;5.93;;;5.70;99.90;;;;;;4961054;28;20460;-73
2023/01/14 07:34:47;;;;;;;31.73;6.25;;;5.90;99.90;;;;;;4948716;28;20050;-74
2023/01/14 07:37:13;;;;;;;41.42;6.38;;;5.70;99.90;;;;;;4952609;28;20235;-72
2023/01/14 07:39:41;;;;;;;34.47;5.95;;;5.70;99.90;;;;;;4950050;28;20154;-72
2023/01/14 07:42:07;;;;;;;33.58;6.32;;;5.80;99.90;;;;;;4950815;28;20129;-73
2023/01/14 07:44:33;;;;;;;31.50;5.43;;;5.70;99.90;;;;;;4959097;28;20046;-72
2023/01/14 07:46:59;;;;;;;35.30;5.85;;;6.20;99.90;;;;;;4951948;28;20046;-73
2023/01/14 07:49:25;;;;;;;31.67;5.88;;;5.70;99.90;;;;;;4956688;28;20152;-74
2023/01/14 07:51:52;;;;;;;36.15;5.88;;;5.80;99.90;;;;;;4957795;28;20038;-74
2023/01/14 07:54:18;;;;;;;26.45;5.50;;;5.80;99.90;;;;;;4959054;28;20046;-72
2023/01/14 07:56:45;;;;;;;35.38;5.57;;;5.80;99.90;;;;;;4955793;28;20957;-73
2023/01/14 07:59:15;;;;;;;34.15;6.22;;;5.90;99.90;;;;;;4955208;28;20141;-73
2023/01/14 08:01:41;;;;;;;31.15;5.65;;;5.80;99.90;;;;;;4956498;28;20707;-73
2023/01/14 08:04:07;;;;;;;37.53;5.53;;;5.80;99.90;;;;;;4944055;28;20097;-72
2023/01/14 08:06:32;;;;;;;36.90;5.85;;;5.80;99.90;;;;;;4957907;28;20098;-72
2023/01/14 08:09:01;;;;;;;32.85;6.18;;;5.80;99.90;;;;;;4940457;28;20111;-74
2023/01/14 08:11:28;;;;;;;34.78;6.32;;;5.80;99.90;;;;;;4944289;28;20762;-74
2023/01/14 08:13:55;;;;;;;32.80;5.53;;;5.80;99.90;;;;;;4944155;28;20050;-75
2023/01/14 08:16:24;;;;;;;34.38;5.30;;;5.90;99.90;;;;;;4956812;28;20046;-74
2023/01/14 08:18:50;;;;;;;38.03;6.28;;;5.80;99.90;;;;;;4961918;28;20051;-74
2023/01/14 08:21:16;;;;;;;30.15;5.50;;;5.90;99.90;;;;;;4953471;28;20303;-73
2023/01/14 08:23:42;;;;;;;32.65;5.32;;;5.80;99.90;;;;;;4956929;28;20046;-74
2023/01/14 08:26:11;;;;;;;32.40;5.57;;;5.90;99.90;;;;;;4972161;28;20043;-74
2023/01/14 08:28:38;;;;;;;33.65;6.20;;;5.90;99.90;;;;;;4940519;28;20109;-73
2023/01/14 08:31:06;;;;;;;31.42;4.75;;;5.90;99.90;;;;;;4959524;28;20047;-73
2023/01/14 08:33:32;;;;;;;30.55;4.63;;;5.90;99.90;;;;;;4945570;28;20098;-73
2023/01/14 08:36:05;;;;;;;36.83;5.35;;;5.90;99.90;;;;;;4959949;28;20281;-73
2023/01/14 08:38:32;;;;;;;38.63;6.38;;;5.90;99.90;;;;;;4959179;28;20113;-74
2023/01/14 08:41:01;;;;;;;34.35;5.72;;;5.90;99.90;;;;;;4959596;28;20054;-71
2023/01/14 08:43:27;;;;;;;29.75;4.63;;;5.90;99.90;;;;;;4961346;28;20511;-73
2023/01/14 08:45:53;;;;;;;36.53;5.70;;;5.90;99.90;;;;;;4968979;28;20046;-73
2023/01/14 08:48:18;;;;;;;28.38;4.65;;;6.10;99.90;;;;;;4957242;28;20742;-73
2023/01/14 08:50:44;;;;;;;29.80;4.93;;;5.90;99.90;;;;;;4953907;28;20795;-73
2023/01/14 08:53:10;;;;;;;31.85;5.00;;;5.90;99.90;;;;;;4952521;28;20054;-72
2023/01/14 08:55:35;;;;;;;26.00;4.78;;;5.90;99.90;;;;;;4963107;28;20118;-72
2023/01/14 08:58:05;;;;;;;22.30;4.28;;;5.90;99.90;;;;;;4961708;28;20079;-73
2023/01/14 09:00:31;;;;;;;24.88;5.25;;;5.90;99.90;;;;;;4950483;28;20109;-71
2023/01/14 09:02:57;;;;;;;30.10;4.72;;;5.90;99.90;;;;;;4950845;28;20729;-72
2023/01/14 09:05:22;;;;;;;30.60;4.35;;;5.90;99.90;;;;;;4932227;28;20428;-73
2023/01/14 09:18:45;;;;;;;25.20;4.10;;;5.90;99.90;;;;;;4946187;28;20116;-72
2023/01/14 09:21:11;;;;;;;26.65;4.78;;;5.90;99.90;;;;;;4948674;28;20727;-71
2023/01/14 09:23:37;;;;;;;26.38;4.00;;;5.90;99.90;;;;;;4950123;28;20267;-72
2023/01/14 09:26:02;;;;;;;27.83;4.20;;;5.90;99.90;;;;;;4945104;28;20089;-72
2023/01/14 09:28:28;;;;;;;22.20;3.58;;;5.90;99.90;;;;;;4924403;28;20119;-71
2023/01/14 09:30:57;;;;;;;27.08;4.40;;;5.90;99.90;;;;;;4943899;28;20049;-71
2023/01/14 09:33:22;;;;;;;29.40;4.75;;;5.90;99.90;;;;;;4945586;28;20050;-71
2023/01/14 09:35:48;;;;;;;24.63;4.05;;;6.00;99.90;;;;;;4948783;28;20066;-72
2023/01/14 09:38:14;;;;;;;21.77;4.05;;;5.90;99.90;;;;;;4944888;28;20077;-72
2023/01/14 09:40:40;;;;;;;23.95;3.30;;;5.90;99.90;;;;;;4948298;28;20051;-72
2023/01/14 09:43:15;;;;;;;25.58;3.80;;;5.90;99.90;;;;;;4934140;28;20420;-72
2023/01/14 09:45:41;;;;;;;19.98;2.97;;;5.90;99.90;;;;;;4946902;28;20057;-72
2023/01/14 09:48:13;;;;;;;19.77;3.47;;;5.90;99.90;;;;;;4946828;28;20420;-71
2023/01/14 09:51:06;;;;;;;17.73;3.10;;;5.90;99.90;;;;;;4941853;28;20055;-72
2023/01/14 09:53:34;;;;;;;22.45;3.45;;;5.90;99.90;;;;;;4928172;28;20085;-72
2023/01/14 09:56:40;;;;;;;20.52;3.20;;;5.90;99.90;;;;;;4947838;28;20050;-73
2023/01/14 09:59:39;;;;;;;19.65;3.67;;;5.90;99.90;;;;;;4950842;28;20105;-73
2023/01/14 10:02:40;;;;;;;18.08;3.13;;;6.00;99.90;;;;;;4947076;28;20526;-71
2023/01/14 10:05:15;;;;;;;17.65;2.97;;;6.00;99.90;;;;;;4945803;28;20121;-71
2023/01/14 10:07:42;;;;;;;13.70;2.53;;;6.00;99.90;;;;;;4944635;28;20043;-71
2023/01/14 10:10:26;;;;;;;16.73;2.72;;;6.00;99.90;;;;;;4933921;28;20049;-71
2023/01/14 10:12:55;;;;;;;15.77;2.88;;;6.00;99.90;;;;;;4957492;28;20074;-71
2023/01/14 10:15:36;;;;;;;17.10;2.55;;;6.20;99.90;;;;;;4962107;28;20468;-71
2023/01/14 10:18:15;;;;;;;12.15;2.30;;;6.00;99.90;;;;;;4962120;28;20038;-72
2023/01/14 10:20:53;;;;;;;12.70;2.67;;;6.00;99.90;;;;;;4954989;28;20053;-71
2023/01/14 10:23:24;;;;;;;14.65;2.65;;;6.10;99.90;;;;;;4974142;28;20039;-71
2023/01/14 10:25:52;;;;;;;8.48;1.95;;;6.10;99.90;;;;;;4962174;28;20057;-72
2023/01/14 10:28:22;;;;;;;9.70;2.35;;;6.10;99.90;;;;;;4955560;28;20518;-71
2023/01/14 10:30:49;;;;;;;14.02;2.58;;;6.20;99.90;;;;;;4962377;28;20767;-72
2023/01/14 10:33:17;;;;;;;13.05;2.78;;;6.40;99.90;;;;;;4937752;28;20039;-72
2023/01/14 10:36:14;;;;;;;10.00;2.20;;;6.20;99.90;;;;;;4941053;28;20049;-72
2023/01/14 10:38:42;;;;;;;10.13;1.92;;;6.30;99.90;;;;;;4957986;28;20594;-72
2023/01/14 10:41:10;;;;;;;9.95;1.60;;;6.30;99.90;;;;;;4956891;28;20073;-72
2023/01/14 10:43:42;;;;;;;8.35;1.38;;;6.30;99.90;;;;;;4940990;28;20050;-72
2023/01/14 10:46:17;;;;;;;8.85;1.75;;;6.40;99.90;;;;;;4958951;28;20145;-72
2023/01/14 10:48:58;;;;;;;9.07;1.90;;;6.40;99.90;;;;;;4954182;28;20050;-72
2023/01/14 10:51:35;;;;;;;7.40;1.88;;;6.50;99.90;;;;;;4960476;28;20046;-73
2023/01/14 10:54:19;;;;;;;6.13;1.50;;;6.50;99.90;;;;;;4957914;28;20404;-72
2023/01/14 10:56:49;;;;;;;8.23;1.95;;;6.60;99.90;;;;;;4954747;28;20055;-73
2023/01/14 10:59:39;;;;;;;6.47;1.63;;;6.60;99.90;;;;;;4959786;28;20054;-72
2023/01/14 11:02:18;;;;;;;7.35;1.98;;;6.60;99.90;;;;;;4957288;28;21651;-71
2023/01/14 11:04:44;;;;;;;8.13;1.83;;;6.60;99.90;;;;;;4957545;28;20058;-72
2023/01/14 11:07:26;;;;;;;10.40;1.90;;;6.70;99.90;;;;;;4942433;28;20863;-72
2023/01/14 11:09:52;;;;;;;7.05;1.60;;;6.70;99.90;;;;;;4979478;28;20043;-71
2023/01/14 11:12:33;;;;;;;9.98;1.98;;;6.70;99.90;;;;;;5109577;27;20403;-72
2023/01/14 11:15:00;;;;;;;7.50;1.67;;;6.80;99.90;;;;;;5087109;28;20051;-73
2023/01/14 11:17:28;;;;;;;6.88;1.67;;;6.70;99.90;;;;;;5067796;28;20135;-73
2023/01/14 11:20:24;;;;;;;6.22;1.92;;;6.70;99.90;;;;;;5066471;28;20031;-72
2023/01/14 11:23:01;;;;;;;5.78;1.63;;;6.80;99.90;;;;;;5054462;28;20052;-72
2023/01/14 11:25:28;;;;;;;14.43;1.70;;;6.70;99.90;;;;;;5060750;28;21038;-71
2023/01/14 11:27:55;;;;;;;6.63;1.52;;;6.70;99.90;;;;;;5070175;28;20044;-72
2023/01/14 11:30:24;;;;;;;5.18;1.60;;;6.80;99.90;;;;;;5063343;28;20054;-72
2023/01/14 11:32:52;;;;;;;6.18;1.65;;;6.80;99.90;;;;;;5082875;28;22180;-72
2023/01/14 11:35:26;;;;;;;8.57;1.77;;;7.20;99.90;;;;;;5074249;28;20054;-73
2023/01/14 11:37:56;;;;;;;6.65;1.70;;;6.80;99.90;;;;;;5069029;28;20055;-72
2023/01/14 11:41:28;;;;;;;7.18;1.60;;;6.80;99.90;;;;;;5065808;28;20126;-72
2023/01/14 11:43:14;;;;;;;7.40;1.70;;;6.80;99.90;;;;;;5067934;28;20085;-72
2023/01/14 11:45:39;;;;;;;10.98;1.90;;;6.80;99.90;;;;;;5089347;28;20040;-73
2023/01/14 11:48:27;;;;;;;5.93;1.80;;;6.80;99.90;;;;;;5051329;28;20102;-73
2023/01/14 11:51:03;;;;;;;6.15;1.80;;;6.80;99.90;;;;;;5073190;28;20048;-72
2023/01/14 11:53:50;;;;;;;6.95;1.75;;;6.80;99.90;;;;;;5051801;28;20089;-72
2023/01/14 11:56:35;;;;;;;7.72;1.70;;;6.90;99.90;;;;;;5056099;28;20044;-71
2023/01/14 11:59:23;;;;;;;5.78;1.45;;;6.90;99.90;;;;;;5064748;28;20137;-72
2023/01/14 12:02:12;;;;;;;8.10;1.48;;;6.90;99.90;;;;;;5069194;28;20036;-71
2023/01/14 12:05:09;;;;;;;6.53;1.67;;;6.90;99.90;;;;;;5054041;28;20587;-73
2023/01/14 12:07:46;;;;;;;4.50;1.40;;;6.90;99.90;;;;;;5051730;28;20047;-71
2023/01/14 12:10:30;;;;;;;5.32;1.55;;;6.90;99.90;;;;;;5054013;28;20386;-71
2023/01/14 12:19:12;;;;;;;6.03;1.88;;;7.00;99.90;;;;;;5066905;28;20106;-72
2023/01/14 12:21:51;;;;;;;6.18;1.63;;;7.00;99.90;;;;;;5069350;28;20059;-73
2023/01/14 12:24:29;;;;;;;5.32;1.50;;;7.00;99.90;;;;;;5047625;28;20051;-72
2023/01/14 12:26:59;;;;;;;5.55;2.42;;;7.10;99.90;;;;;;5064995;28;20705;-73
2023/01/14 12:29:34;;;;;;;7.72;1.90;;;7.30;99.90;;;;;;5037712;28;20046;-73
2023/01/14 12:32:12;;;;;;;8.20;1.83;;;7.40;99.90;;;;;;5053208;28;20382;-72
2023/01/14 12:34:49;;;;;;;6.03;1.80;;;7.20;99.90;;;;;;5048582;28;20086;-73
2023/01/14 12:37:39;;;;;;;5.82;1.30;;;7.20;99.90;;;;;;5070273;28;20049;-72
2023/01/14 12:46:19;;;;;;;6.20;1.50;;;7.30;99.90;;;;;;5049840;28;20396;-72
2023/01/14 12:48:44;;;;;;;5.25;1.40;;;7.30;99.90;;;;;;5048435;28;20108;-71
2023/01/14 12:51:30;;;;;;;4.43;1.40;;;7.30;99.90;;;;;;5062915;28;21130;-72
2023/01/14 12:54:02;;;;;;;4.53;1.58;;;7.40;99.90;;;;;;5049917;28;20071;-72
2023/01/14 12:56:35;;;;;;;4.07;1.33;;;7.40;99.90;;;;;;5047681;28;20104;-72
2023/01/14 12:59:02;;;;;;;4.75;1.48;;;7.50;99.90;;;;;;5049953;28;20485;-72
2023/01/14 13:01:37;;;;;;;6.35;2.05;;;7.50;99.90;;;;;;5050777;28;20084;-71
2023/01/14 13:04:14;;;;;;;3.47;1.33;;;7.60;99.90;;;;;;5063068;28;20072;-71
2023/01/14 13:06:43;;;;;;;5.97;1.73;;;8.10;99.90;;;;;;5046707;28;20147;-71
2023/01/14 13:09:21;;;;;;;4.45;1.20;;;7.60;99.90;;;;;;5033977;28;20044;-72
2023/01/14 13:11:50;;;;;;;4.50;1.60;;;7.60;99.90;;;;;;5045628;28;20052;-71
2023/01/14 13:14:38;;;;;;;3.30;1.38;;;7.70;99.90;;;;;;5049708;28;20052;-71
2023/01/14 13:17:32;;;;;;;6.22;1.33;;;7.70;99.90;;;;;;5049390;28;20053;-71
2023/01/14 13:20:02;;;;;;;4.05;1.25;;;7.80;99.90;;;;;;5050134;28;20563;-72
2023/01/14 13:22:47;;;;;;;9.32;1.80;;;7.90;99.90;;;;;;5050904;28;20614;-72
2023/01/14 13:25:22;;;;;;;4.50;1.50;;;7.90;99.90;;;;;;5036329;28;20052;-72
2023/01/14 13:27:48;;;;;;;3.47;1.30;;;7.90;99.90;;;;;;5048548;28;20037;-72
2023/01/14 13:30:17;;;;;;;5.80;1.30;;;8.00;99.90;;;;;;5051258;28;20056;-72
2023/01/14 13:33:06;;;;;;;3.90;1.23;;;8.00;99.90;;;;;;5036777;28;20063;-73
2023/01/14 13:35:33;;;;;;;3.55;1.38;;;8.00;99.90;;;;;;5029387;28;20039;-72
2023/01/14 13:38:20;;;;;;;3.63;1.15;;;8.00;99.90;;;;;;5032223;28;20239;-72
2023/01/14 13:40:52;;;;;;;4.85;1.20;;;8.10;99.90;;;;;;5066614;28;20146;-72
2023/01/14 13:43:22;;;;;;;;;;;8.50;99.90;;;;;;5047932;28;20041;-72
2023/01/14 13:45:58;;;;;;;2.65;1.05;;;8.20;99.90;;;;;;5051156;28;19924;-72
2023/01/14 13:48:28;;;;;;;3.38;0.95;;;8.30;99.90;;;;;;5068924;28;20674;-72
2023/01/14 13:51:18;;;;;;;4.55;1.23;;;8.30;99.90;;;;;;5046650;28;20078;-72